Latest Weather Observations for Georgetown Airport

IDQ60801

Issued at 6:32 pm EST Thursday 19 January 2017 (issued every 30 minutes, with the page automatically refreshed every 10 minutes)

About weather observations | Map of weather stations | Latest weather observations for QLD | Other Formats
Station Details ID: 030124 Name: GEORGETOWN AIRPORT Lat: -18.30 Lon: 143.53 Height: 301.77 m
Data from the previous 72 hours. | See also: Recent months at Georgetown Airport
Date/Time
EST
Temp
°C
App
Temp
°C
Dew
Point
°C
Rel
Hum
%
Delta-T
°C
Wind Press
QNH
hPa
Press
MSL
hPa
Rain since
9am
mm
Dir  Spd
km/h
Gust
km/h
Spd
kts
Gust
kts
19/06:30pm 32.5 35.4 21.0 50 7.8 W 7 9 4 5 1007.1 - 0.0
19/06:00pm 32.9 35.4 21.1 50 8.0 WNW 9 11 5 6 1007.0 1004.8 0.0
19/05:30pm 33.1 35.9 21.6 51 7.9 WNW 9 13 5 7 1007.2 - 0.0
19/05:00pm 33.2 35.5 21.4 50 8.1 W 11 17 6 9 1007.1 - 0.0
19/04:30pm 33.3 36.4 22.1 52 7.7 NW 9 19 5 10 1007.3 - 0.0
19/04:00pm 33.7 37.4 22.5 52 7.8 WNW 7 13 4 7 1007.8 - 0.0
19/03:30pm 33.5 36.5 22.0 51 7.9 WSW 9 15 5 8 1008.1 - 0.0
19/03:00pm 33.1 36.4 22.5 53 7.4 NW 9 17 5 9 1008.5 1006.3 0.0
19/02:30pm 32.4 34.8 21.6 53 7.4 WNW 11 19 6 10 1009.0 - 0.0
19/02:00pm 32.7 36.4 22.2 54 7.2 WSW 6 11 3 6 1009.5 - 0.0
19/01:30pm 32.0 34.3 22.1 55 6.8 WSW 13 22 7 12 1010.0 - 0.0
19/01:00pm 31.8 35.1 22.5 58 6.4 NNW 9 15 5 8 1010.4 - 0.0
19/12:30pm 31.6 35.2 23.7 63 5.5 NW 11 17 6 9 1011.0 - 0.0
19/12:00pm 30.8 33.7 22.4 61 5.8 WNW 11 15 6 8 1011.2 1009.1 0.0
19/11:30am 31.0 35.3 23.6 64 5.2 WSW 7 9 4 5 1011.7 - 0.0
19/11:00am 30.7 34.9 23.1 64 5.3 N 6 9 3 5 1012.1 - 0.0
19/10:30am 29.6 34.0 22.8 67 4.7 NNW 4 9 2 5 1012.4 - 0.0
19/10:00am 29.6 34.0 22.8 67 4.7 NNW 4 9 2 5 1012.6 - 0.0
19/09:30am 29.0 33.2 22.5 68 4.5 N 4 7 2 4 1013.0 - 0.0
19/09:00am 28.4 33.2 22.9 72 3.8 ESE 2 7 1 4 1012.9 1010.8 0.0
19/08:30am 27.9 32.0 23.3 76 3.2 SE 7 13 4 7 1013.2 - 0.0
19/08:00am 26.8 30.9 23.3 81 2.4 ESE 7 13 4 7 1013.4 - 0.0
19/07:30am 25.9 30.3 23.4 86 1.7 SSE 6 9 3 5 1013.5 - 0.0
19/07:00am 24.5 29.9 23.3 93 0.8 CALM 0 0 0 0 1013.6 - 0.0
19/06:39am 24.3 29.7 23.3 94 0.7 CALM 0 0 0 0 1013.4 - 0.0
19/06:32am 24.3 29.6 23.1 93 0.8 CALM 0 0 0 0 1013.3 - 0.0
19/06:30am 24.3 29.6 23.1 93 0.8 CALM 0 0 0 0 1013.3 - 0.0
19/06:00am 24.3 28.9 23.1 93 0.8 WSW 4 7 2 4 1013.2 1010.9 0.0
19/05:30am 24.4 28.5 23.0 92 1.0 WNW 6 7 3 4 1012.8 - 0.0
19/05:00am 24.5 28.5 23.1 92 1.0 NW 7 11 4 6 1012.6 - 0.0
19/04:49am 24.5 28.4 22.9 91 1.1 NNW 7 9 4 5 1012.5 - 0.0
19/04:48am 24.5 28.4 22.9 91 1.1 NNW 7 9 4 5 1012.4 - 0.0
19/04:30am 24.5 28.4 22.9 91 1.1 N 7 11 4 6 1012.2 - 0.0
19/04:10am 24.6 28.2 23.0 91 1.1 NNW 9 13 5 7 1012.2 - 0.0
19/04:00am 24.8 28.9 23.2 91 1.1 N 7 11 4 6 1012.2 - 0.0
19/03:44am 24.8 28.9 23.2 91 1.1 N 7 13 4 7 1012.2 - 0.0
19/03:30am 24.8 28.9 23.2 91 1.1 N 7 11 4 6 1012.1 - 0.0
19/03:00am 24.9 28.9 23.1 90 1.2 N 7 11 4 6 1012.2 1010.0 0.0
19/02:30am 25.1 29.2 23.2 89 1.3 N 7 11 4 6 1012.3 - 0.0
19/02:00am 25.2 29.3 23.3 89 1.3 N 7 13 4 7 1012.4 - 0.0
19/01:30am 25.2 29.3 23.3 89 1.3 N 7 9 4 5 1012.5 - 0.0
19/01:00am 25.4 29.1 23.3 88 1.4 NNE 9 13 5 7 1012.7 - 0.0
19/12:30am 25.7 29.3 23.7 89 1.4 N 11 17 6 9 1012.8 - 0.0
19/12:00am 25.7 29.1 23.4 87 1.6 N 11 13 6 7 1012.5 1010.3 0.0
 
Date/Time
EST
Temp
°C
App
Temp
°C
Dew
Point
°C
Rel
Hum
%
Delta-T
°C
Wind Press
QNH
hPa
Press
MSL
hPa
Rain since
9am
mm
Dir  Spd
km/h
Gust
km/h
Spd
kts
Gust
kts
18/11:30pm 25.9 28.4 22.4 81 2.4 NNE 13 19 7 10 1012.3 - 0.0
18/11:00pm 26.4 30.1 23.3 83 2.1 NE 9 15 5 8 1012.2 - 0.0
18/10:30pm 27.0 32.9 24.1 84 2.0 CALM 0 0 0 0 1012.2 - 0.0
18/10:00pm 27.2 33.1 24.1 83 2.2 CALM 0 0 0 0 1012.2 - 0.0
18/09:30pm 27.8 33.8 24.8 84 2.1 WNW 2 6 1 3 1011.8 - 0.0
18/09:00pm 28.3 33.3 24.5 80 2.7 NW 6 7 3 4 1011.8 1009.6 0.0
18/08:30pm 28.2 34.7 25.0 83 2.3 CALM 0 0 0 0 1011.5 - 0.0
18/08:00pm 28.3 32.8 23.9 77 3.1 WSW 7 11 4 6 1010.7 - 0.0
18/07:30pm 28.4 33.1 24.0 77 3.1 SW 6 7 3 4 1010.7 - 0.0
18/07:00pm 29.2 33.1 22.9 69 4.3 S 7 11 4 6 1010.6 - 0.0
18/06:30pm 31.6 34.8 22.3 57 6.4 SSW 9 19 5 10 1009.7 - 0.0
18/06:00pm 31.6 35.3 23.2 61 5.9 WSW 9 13 5 7 1009.7 1007.5 0.0
18/05:30pm 32.1 35.6 24.2 63 5.6 WSW 13 22 7 12 1009.8 - 0.0
18/05:00pm 32.3 35.7 23.3 59 6.3 WSW 11 17 6 9 1009.5 - 0.0
18/04:30pm 32.4 36.5 23.9 61 6.0 SSW 9 15 5 8 1009.6 - 0.0
18/04:00pm 32.6 36.6 23.8 59 6.2 S 9 13 5 7 1009.7 - 0.0
18/03:30pm 32.4 36.3 23.6 59 6.2 SSW 9 11 5 6 1010.2 - 0.0
18/03:00pm 31.9 35.1 21.7 54 7.0 WNW 7 15 4 8 1010.5 1008.3 0.0
18/02:30pm 31.8 35.5 23.3 60 5.9 W 9 17 5 9 1011.1 - 0.0
18/02:00pm 30.7 34.7 23.1 64 5.3 NNW 7 13 4 7 1011.6 - 0.0
18/01:30pm 30.6 33.3 22.2 61 5.8 W 11 17 6 9 1012.1 - 0.0
18/01:00pm 31.1 33.8 21.3 56 6.7 NW 9 17 5 9 1012.8 - 0.0
18/12:30pm 30.6 33.1 22.5 62 5.6 WNW 13 19 7 10 1013.2 - 0.0
18/12:00pm 30.4 34.4 22.8 64 5.3 NW 6 17 3 9 1013.8 1011.6 0.0
18/11:30am 29.7 33.9 23.4 69 4.4 NNW 7 13 4 7 1014.1 - 0.0
18/11:00am 28.8 31.6 22.3 68 4.4 NNW 11 17 6 9 1014.5 - 0.0
18/10:30am 28.3 32.0 23.2 74 3.5 NNW 9 13 5 7 1014.8 - 0.0
18/10:00am 27.3 31.3 23.1 78 2.9 WNW 7 15 4 8 1015.0 - 0.0
18/09:30am 26.9 29.9 22.7 78 2.9 NW 11 17 6 9 1015.1 - 0.0
18/09:06am 26.4 30.4 23.7 85 1.9 WNW 9 13 5 7 1015.3 - 0.0
18/09:00am 26.1 29.9 23.4 85 1.9 WNW 9 13 5 7 1015.4 1013.2 1.2
18/08:30am 25.6 29.2 23.1 86 1.7 W 9 13 5 7 1015.3 - 1.2
18/08:08am 25.6 29.8 22.5 83 2.1 W 4 7 2 4 1015.2 - 1.2
18/08:00am 25.2 29.2 22.7 86 1.7 NW 6 7 3 4 1015.3 - 1.2
18/07:30am 24.6 28.4 22.7 89 1.3 NNE 7 9 4 5 1015.0 - 1.2
18/07:15am 24.5 28.5 22.7 90 1.2 NE 6 7 3 4 1014.9 - 1.2
18/07:00am 24.2 28.0 22.8 92 1.0 NNE 7 11 4 6 1014.8 - 1.2
18/06:39am 24.1 27.7 23.1 94 0.7 NNE 9 13 5 7 1014.8 - 1.2
18/06:30am 24.0 27.1 22.8 93 0.8 NNE 11 15 6 8 1014.7 - 1.2
18/06:00am 24.0 26.8 23.0 94 0.7 NE 13 20 7 11 1014.1 1012.0 1.2
18/05:37am 24.0 27.4 23.3 96 0.5 NNE 11 15 6 8 1014.0 - 1.2
18/05:30am 24.0 27.2 23.1 95 0.6 N 11 15 6 8 1014.0 - 1.2
18/05:18am 24.0 26.0 23.0 94 0.7 N 17 28 9 15 1014.0 - 0.6
18/05:00am 24.5 26.5 22.9 91 1.1 N 17 28 9 15 1013.6 - 0.0
18/04:30am 26.0 29.8 23.5 86 1.7 NNE 9 13 5 7 1013.1 - 0.0
18/04:00am 26.0 29.7 23.3 85 1.9 ENE 9 11 5 6 1012.9 - 0.0
18/03:30am 26.2 30.2 23.1 83 2.1 E 7 13 4 7 1012.8 - 0.0
18/03:00am 26.1 30.7 23.8 87 1.6 ENE 6 7 3 4 1012.6 1010.4 0.0
18/02:30am 25.7 29.8 23.2 86 1.7 ESE 7 11 4 6 1012.5 - 0.0
18/02:00am 25.8 30.6 24.2 91 1.1 SE 6 11 3 6 1012.5 - 0.0
18/01:30am 26.0 32.1 24.4 91 1.1 CALM 0 4 0 2 1012.6 - 0.0
18/01:00am 26.3 32.4 25.1 93 0.8 ENE 2 7 1 4 1012.7 - 0.0
18/12:30am 26.4 33.0 25.2 93 0.8 CALM 0 0 0 0 1013.0 - 0.0
18/12:00am 26.2 31.6 25.2 94 0.7 ESE 6 7 3 4 1013.1 1010.9 0.0
 
Date/Time
EST
Temp
°C
App
Temp
°C
Dew
Point
°C
Rel
Hum
%
Delta-T
°C
Wind Press
QNH
hPa
Press
MSL
hPa
Rain since
9am
mm
Dir  Spd
km/h
Gust
km/h
Spd
kts
Gust
kts
17/11:30pm 26.0 32.3 24.8 93 0.8 CALM 0 0 0 0 1013.2 - 0.0
17/11:00pm 26.1 32.5 24.9 93 0.8 CALM 0 0 0 0 1013.2 - 0.0
17/10:30pm 26.2 32.4 24.6 91 1.1 CALM 0 0 0 0 1013.5 - 0.0
17/10:00pm 26.4 32.5 24.4 89 1.4 CALM 0 0 0 0 1013.4 - 0.0
17/09:30pm 26.5 31.3 24.2 87 1.6 WSW 6 9 3 5 1013.1 - 0.0
17/09:00pm 26.9 32.1 24.2 85 1.9 WSW 4 9 2 5 1012.6 1010.4 0.0
17/08:30pm 27.2 32.0 24.1 83 2.2 WSW 6 9 3 5 1012.7 - 0.0
17/08:00pm 28.1 33.5 23.9 78 2.9 NNW 2 9 1 5 1012.2 - 0.0
17/07:30pm 28.0 32.6 23.8 78 2.9 NE 6 11 3 6 1011.6 - 0.0
17/07:00pm 28.9 32.6 23.3 72 3.9 NE 9 13 5 7 1011.5 - 0.0
17/06:30pm 29.1 32.6 22.8 69 4.3 E 9 11 5 6 1011.3 - 0.0
17/06:00pm 30.2 33.7 22.1 62 5.5 SE 7 19 4 10 1011.0 1008.7 0.0
17/05:30pm 31.6 35.0 22.0 56 6.6 NNE 7 9 4 5 1010.5 - 0.0
17/05:00pm 32.2 34.5 22.0 55 7.0 NE 13 19 7 10 1010.2 - 0.0
17/04:30pm 32.2 35.4 21.7 54 7.2 N 7 13 4 7 1009.9 - 0.0
17/04:00pm 31.3 34.6 21.5 56 6.7 ESE 6 9 3 5 1010.2 - 0.0
17/03:30pm 32.0 35.5 22.1 55 6.8 E 7 13 4 7 1010.6 - 0.0
17/03:00pm 30.7 34.2 22.8 62 5.5 E 9 13 5 7 1010.8 1008.6 0.0
17/02:30pm 29.2 30.6 22.9 69 4.3 E 20 39 11 21 1011.3 - 0.0
17/02:00pm 31.3 33.9 21.2 55 6.8 NE 9 17 5 9 1011.5 - 0.0
17/01:30pm 31.5 36.0 23.6 63 5.5 NNE 6 11 3 6 1011.9 - 0.0
17/01:00pm 30.9 34.8 22.5 61 5.8 NNE 6 15 3 8 1012.4 - 0.0
17/12:30pm 30.5 34.0 22.1 61 5.8 N 7 15 4 8 1012.7 - 0.0
17/12:00pm 30.1 33.7 23.0 65 4.9 NNE 9 15 5 8 1013.2 1011.0 0.0
17/11:30am 28.7 32.3 22.0 67 4.6 N 6 13 3 7 1013.7 - 0.0
17/11:00am 29.5 33.7 23.4 69 4.2 NE 7 13 4 7 1014.1 - 0.0
17/10:30am 28.2 31.1 22.4 71 4.0 N 11 17 6 9 1014.5 - 0.0
17/10:00am 28.4 32.0 23.1 73 3.7 NE 9 13 5 7 1014.8 - 0.0
17/09:30am 27.6 31.7 23.2 77 3.0 NNE 7 11 4 6 1014.7 - 0.0
17/09:16am 27.1 31.1 22.7 77 3.0 NNE 6 13 3 7 1014.8 - 0.0
17/09:04am 27.4 31.5 23.0 77 3.0 ENE 6 9 3 5 1014.8 - 0.0
17/09:00am 27.3 31.8 23.7 81 2.5 NNE 6 9 3 5 1014.8 1012.6 24.2
17/08:30am 26.4 30.3 22.9 81 2.4 NNE 7 13 4 7 1014.8 - 24.2
17/08:00am 25.2 28.9 22.3 84 2.0 NE 6 9 3 5 1014.7 - 24.0
17/07:30am 24.7 28.4 22.6 88 1.4 ENE 7 9 4 5 1014.1 - 24.0
17/07:00am 24.2 29.0 22.1 88 1.4 CALM 0 0 0 0 1013.4 - 24.0
17/06:30am 22.9 28.0 22.6 98 0.2 CALM 0 0 0 0 1013.0 - 24.0
17/06:00am 22.5 26.2 22.2 98 0.2 ESE 6 9 3 5 1012.2 1010.0 24.0
17/05:30am 22.5 26.1 22.3 99 0.1 ESE 7 9 4 5 1011.9 - 24.0
17/05:00am 22.5 26.6 22.2 98 0.2 ESE 4 7 2 4 1011.6 - 24.0
17/04:30am 22.5 26.0 22.2 98 0.2 E 7 9 4 5 1011.6 - 24.0
17/04:00am 22.7 26.0 22.5 99 0.1 ENE 9 13 5 7 1011.6 - 24.0
17/03:30am 22.6 27.4 22.1 97 0.3 CALM 0 4 0 2 1011.7 - 24.0
17/03:00am 22.7 26.9 22.5 99 0.1 NNE 4 7 2 4 1011.9 1009.7 24.0
17/02:57am 22.7 26.9 22.5 99 0.1 NNE 4 7 2 4 1011.8 - 24.0
17/02:30am 22.9 26.8 22.9 100 0.0 NE 7 9 4 5 1012.1 - 23.4
17/02:18am 22.8 26.5 22.6 99 0.1 N 7 11 4 6 1012.4 - 22.6
17/02:00am 22.9 25.9 22.7 99 0.1 NNE 11 15 6 8 1012.9 - 21.8
17/01:40am 22.9 25.9 22.7 99 0.1 NNE 11 17 6 9 1013.1 - 20.4
17/01:30am 22.9 26.0 22.9 100 0.0 NNE 11 13 6 7 1013.1 - 19.8
17/01:24am 22.8 26.6 22.8 100 0.0 NNE 7 13 4 7 1013.2 - 19.4
17/01:04am 22.6 25.6 22.6 100 0.0 N 11 15 6 8 1013.2 - 18.2
17/01:00am 22.5 25.4 22.5 100 0.0 N 11 15 6 8 1013.2 - 18.0
17/12:42am 22.5 24.5 22.3 99 0.1 NNW 15 22 8 12 1013.3 - 16.8
17/12:30am 22.5 24.5 22.2 98 0.2 N 15 20 8 11 1013.3 - 13.8
17/12:22am 22.7 24.8 22.4 98 0.2 N 15 22 8 12 1013.3 - 9.6
17/12:00am 23.0 24.9 22.7 98 0.2 N 17 24 9 13 1013.3 1011.1 7.4
 
Date/Time
EST
Temp
°C
App
Temp
°C
Dew
Point
°C
Rel
Hum
%
Delta-T
°C
Wind Press
QNH
hPa
Press
MSL
hPa
Rain since
9am
mm
Dir  Spd
km/h
Gust
km/h
Spd
kts
Gust
kts
16/11:33pm 23.1 24.9 22.6 97 0.3 N 17 24 9 13 1013.1 - 6.2
16/11:30pm 23.1 24.4 22.4 96 0.5 NNW 19 28 10 15 1013.1 - 6.2
16/11:16pm 23.7 25.7 23.0 96 0.5 N 17 30 9 16 1013.0 - 5.4
16/11:00pm 23.9 26.6 23.4 97 0.3 ENE 15 22 8 12 1012.5 - 3.8
16/10:30pm 23.8 25.7 22.8 94 0.7 E 17 26 9 14 1011.8 - 1.4
16/10:00pm 24.2 25.9 22.3 89 1.3 ESE 17 32 9 17 1011.8 - 0.0
16/09:30pm 25.6 26.5 22.7 84 2.0 E 22 37 12 20 1011.5 - 0.0
16/09:00pm 27.4 28.3 22.6 75 3.3 E 22 33 12 18 1011.2 1009.0 0.0
16/08:30pm 28.4 33.7 25.0 82 2.4 NE 6 7 3 4 1010.5 - 0.0
16/08:00pm 28.5 33.6 24.7 80 2.7 ENE 6 7 3 4 1009.9 - 0.0
16/07:30pm 28.8 34.2 23.9 75 3.4 S 2 7 1 4 1009.7 - 0.0
16/07:00pm 29.5 35.2 23.7 71 4.0 CALM 0 0 0 0 1008.8 - 0.0

Other Formats:

Comma delimited format used in spreadsheet applications
http://www.bom.gov.au/fwo/IDQ60801/IDQ60801.94274.axf

JavaScript Object Notation format (JSON) in row-major order
http://www.bom.gov.au/fwo/IDQ60801/IDQ60801.94274.json